Pagrindinis puslapis
METAR-TAF:

METAR-TAF

Oro uostai :

Niamėjus, Nigeris

platuma: 13-29N, ilguma: 002-10E, Aukštis: 223 m

Dabartinis oras

Ataskaita buvo paskelbta 26 minutes, ne 02:00 UTC
Vėjas 3 kt iš Pietvakarių
Temperatūra 30°C
Drėgmė 12%
Slėgis 1008 hPa
Matomumas 10 km arba daugiau
nėra debesų žemiau 1500 m ir nėra kamuolinių lietaus debesų

METAR: DRRN 140200Z 22003KT CAVOK 30/M03 Q1008 NOSIG

Laikas: 03:26 (02:26 UTC)

Prognozė

Ataskaita buvo paskelbta 3 valandos ir 26 minutes, ne 23:00 UTC
Prognozė galioja nuo 14 metu 00 UTC su 15 metu 06 UTC
Vėjas 5 kt iš Šiaurės/Šiaurės Vakarų
Matomumas: 8000 m

TAF: DRRN 132300Z 1400/1506 34005KT 8000 NSC

Orai ataskaitas ir orų prognozės (METAR, TAF).

turimą stotys yra geltonos ir raudonos taškus žemėlapyje.

Perkelti pele per norėdami pamatyti stoties vardą.

Tada spustelėkite, norėdami matyti oro stebėjimo ir prognozės.

Norėdami pakeisti žemėlapį: spustelėkite ant žalios mygtukų su juodo kryžiaus žemyn,; žalią mygtuką su brūkšneliu, jei norite nutolinti; arba žalių rodyklių gretimoms žemėlapius.


METAR-TAF: